Time;durP1;ratioP1;P1;durP2;ratioP2;P2;SDS_P1;SDS_P2;PMS_P1;PMS_P2;Temp;Humidity;BMP_temperature;BMP_pressure;BME280_temperature;BME280_humidity;BME280_pressure;Samples;Min_cycle;Max_cycle;Signal;HPM_P1;HPM_P2
2022/03/16 00:00:10;;;;;;;;;20.50;19.50;;;;;13.76;67.10;101655.63;5034343;28;46288;-69
2022/03/16 00:02:36;;;;;;;;;19.25;17.50;;;;;13.71;67.61;101649.53;5022803;28;45272;-70
2022/03/16 00:05:02;;;;;;;;;12.75;12.00;;;;;13.70;67.09;101646.00;5032638;28;45223;-69
2022/03/16 00:07:27;;;;;;;;;20.50;19.50;;;;;13.71;67.25;101638.81;5024293;28;45303;-70
2022/03/16 00:09:52;;;;;;;;;22.25;19.00;;;;;13.73;67.25;101650.38;5034297;28;45310;-70
2022/03/16 00:12:18;;;;;;;;;18.00;16.00;;;;;13.72;67.29;101645.94;5021693;28;45236;-69
2022/03/16 00:14:44;;;;;;;;;15.75;14.25;;;;;13.77;67.42;101656.53;5035837;28;45429;-69
2022/03/16 00:17:09;;;;;;;;;16.50;16.00;;;;;13.78;67.24;101652.91;5032722;28;45344;-69
2022/03/16 00:19:35;;;;;;;;;17.75;17.00;;;;;13.77;67.07;101646.66;5033820;28;45379;-69
2022/03/16 00:22:03;;;;;;;;;19.00;19.00;;;;;13.79;67.09;101643.94;5021320;28;45647;-69
2022/03/16 00:24:28;;;;;;;;;19.25;17.75;;;;;13.76;67.22;101647.59;5021713;28;45307;-69
2022/03/16 00:26:54;;;;;;;;;19.50;16.25;;;;;13.74;66.91;101641.41;5038552;28;45542;-70
2022/03/16 00:29:19;;;;;;;;;16.75;16.25;;;;;13.73;66.89;101642.31;5027610;28;45304;-69
2022/03/16 00:31:45;;;;;;;;;17.25;17.25;;;;;13.76;67.22;101644.03;5039286;28;45307;-69
2022/03/16 00:34:11;;;;;;;;;19.25;19.00;;;;;13.73;67.02;101645.00;5041501;28;45305;-69
2022/03/16 00:36:36;;;;;;;;;21.50;18.00;;;;;13.74;67.07;101637.84;5036067;28;45422;-69
2022/03/16 00:39:03;;;;;;;;;21.50;18.50;;;;;13.78;67.05;101644.84;5032184;28;46103;-69
2022/03/16 00:41:29;;;;;;;;;19.75;19.25;;;;;13.66;66.98;101614.78;5025422;28;45439;-69
2022/03/16 00:43:54;;;;;;;;;18.75;16.75;;;;;13.77;66.99;101645.81;5031049;28;45507;-70
2022/03/16 00:46:19;;;;;;;;;15.50;14.75;;;;;13.76;67.22;101639.53;5039035;28;45383;-70
2022/03/16 00:48:45;;;;;;;;;18.50;17.75;;;;;13.72;66.83;101624.47;5026936;28;45487;-69
2022/03/16 00:51:11;;;;;;;;;20.25;18.50;;;;;13.77;67.03;101640.44;5027741;28;45312;-69
2022/03/16 00:53:39;;;;;;;;;12.25;11.50;;;;;13.62;66.80;101621.19;5028366;28;45522;-69
2022/03/16 00:56:05;;;;;;;;;17.75;17.50;;;;;13.63;67.01;101625.66;5020812;28;45300;-69
2022/03/16 00:58:30;;;;;;;;;19.00;14.75;;;;;13.59;66.94;101620.41;5024437;28;47376;-70
2022/03/16 01:00:56;;;;;;;;;18.75;18.75;;;;;13.56;67.29;101616.00;5030482;28;45415;-70
2022/03/16 01:03:21;;;;;;;;;17.50;15.50;;;;;13.49;66.77;101606.41;5032976;28;46211;-70
2022/03/16 01:05:46;;;;;;;;;17.25;17.25;;;;;13.49;67.35;101604.59;5031984;28;45355;-70
2022/03/16 01:08:13;;;;;;;;;20.25;18.00;;;;;13.56;66.96;101620.50;5023260;28;46111;-69
2022/03/16 01:10:39;;;;;;;;;15.25;15.25;;;;;13.53;67.16;101610.72;5028947;28;45497;-69
2022/03/16 01:13:05;;;;;;;;;13.75;13.75;;;;;13.52;67.10;101614.38;5027127;28;45389;-69
2022/03/16 01:15:31;;;;;;;;;21.25;19.25;;;;;13.49;67.08;101609.09;5031420;28;45307;-69
2022/03/16 01:17:56;;;;;;;;;17.50;17.50;;;;;13.47;67.02;101608.25;5023937;28;45241;-70
2022/03/16 01:20:21;;;;;;;;;16.00;15.50;;;;;13.41;67.07;101598.59;5026428;28;45418;-69
2022/03/16 01:22:47;;;;;;;;;20.00;18.75;;;;;13.44;67.39;101600.31;5028827;28;45344;-69
2022/03/16 01:25:12;;;;;;;;;16.50;16.50;;;;;13.42;67.27;101588.75;5023998;28;45312;-69
2022/03/16 01:27:38;;;;;;;;;18.25;17.25;;;;;13.44;67.38;101582.41;5040244;28;45395;-69
2022/03/16 01:30:05;;;;;;;;;20.75;18.50;;;;;13.47;67.28;101584.13;5034406;28;45155;-69
2022/03/16 01:32:31;;;;;;;;;17.75;16.75;;;;;13.47;67.07;101586.81;5020844;28;45383;-69
2022/03/16 01:34:56;;;;;;;;;20.00;19.25;;;;;13.48;67.10;101586.75;5026186;28;45399;-69
2022/03/16 01:37:22;;;;;;;;;21.50;20.75;;;;;13.44;67.01;101570.81;5050919;28;45393;-69
2022/03/16 01:39:47;;;;;;;;;18.75;18.00;;;;;13.51;67.18;101581.31;5024862;28;45307;-69
2022/03/16 01:42:13;;;;;;;;;18.00;17.25;;;;;13.46;66.88;101574.31;5033309;28;45439;-69
2022/03/16 01:44:47;;;;;;;;;20.50;16.25;;;;;13.50;67.05;101574.19;5039041;28;45502;-69
2022/03/16 01:47:14;;;;;;;;;18.50;16.75;;;;;13.51;67.11;101575.03;5020160;28;47582;-69
2022/03/16 01:49:40;;;;;;;;;20.00;18.25;;;;;13.56;66.81;101586.50;5032007;28;45463;-69
2022/03/16 01:52:07;;;;;;;;;15.75;12.75;;;;;13.55;66.76;101584.78;5020848;28;45441;-69
2022/03/16 01:54:33;;;;;;;;;19.00;19.00;;;;;13.53;66.96;101579.44;5032995;28;45448;-69
2022/03/16 01:56:58;;;;;;;;;22.25;18.25;;;;;13.57;66.80;101585.59;5020378;28;46122;-69
2022/03/16 01:59:24;;;;;;;;;17.00;17.00;;;;;13.51;66.86;101577.72;5019999;28;45412;-69
2022/03/16 02:01:49;;;;;;;;;16.25;15.50;;;;;13.61;66.65;101597.09;5033589;28;45862;-69
2022/03/16 02:04:15;;;;;;;;;18.25;18.00;;;;;13.55;66.50;101582.09;5020104;28;45162;-69
2022/03/16 02:06:40;;;;;;;;;18.75;16.75;;;;;13.53;66.67;101582.13;5019952;28;45332;-69
2022/03/16 02:09:06;;;;;;;;;19.75;18.50;;;;;13.46;66.59;101571.63;5026443;28;45403;-69
2022/03/16 02:11:31;;;;;;;;;19.75;17.25;;;;;13.50;66.56;101576.84;5026508;28;45463;-69
2022/03/16 02:13:57;;;;;;;;;19.25;17.00;;;;;13.53;66.54;101589.28;5027611;28;45438;-69
2022/03/16 02:16:22;;;;;;;;;17.25;16.00;;;;;13.46;66.35;101593.09;5023854;28;46144;-69
2022/03/16 02:18:47;;;;;;;;;16.00;16.00;;;;;13.39;66.81;101583.47;5020146;28;45497;-69
2022/03/16 02:21:16;;;;;;;;;16.75;16.75;;;;;13.37;66.71;101578.16;5031085;28;45369;-69
2022/03/16 02:23:42;;;;;;;;;19.25;17.75;;;;;13.42;66.86;101572.66;5021555;28;45494;-69
2022/03/16 02:26:10;;;;;;;;;13.50;13.50;;;;;13.37;66.85;101562.06;5030598;28;45290;-69
2022/03/16 02:28:36;;;;;;;;;8.50;8.50;;;;;13.48;66.70;101583.19;5036225;28;45528;-69
2022/03/16 02:31:01;;;;;;;;;17.50;17.25;;;;;13.46;66.64;101577.00;5038659;28;45333;-69
2022/03/16 02:33:27;;;;;;;;;20.25;18.75;;;;;13.46;66.50;101582.34;5036882;28;45324;-69
2022/03/16 02:35:52;;;;;;;;;16.75;16.00;;;;;13.44;66.60;101573.50;5019950;28;46196;-69
2022/03/16 02:38:18;;;;;;;;;20.25;19.00;;;;;13.43;66.75;101564.56;5019075;28;45304;-69
2022/03/16 02:40:43;;;;;;;;;15.75;15.75;;;;;13.44;66.58;101565.44;5019524;28;45411;-69
2022/03/16 02:43:09;;;;;;;;;19.75;17.25;;;;;13.38;66.61;101558.47;5024569;28;45340;-69
2022/03/16 02:45:34;;;;;;;;;21.25;17.25;;;;;13.44;66.68;101565.44;5042088;28;45480;-69
2022/03/16 02:47:59;;;;;;;;;12.00;9.50;;;;;13.43;66.73;101559.22;5029693;28;45268;-69
2022/03/16 02:50:25;;;;;;;;;16.25;15.75;;;;;13.44;66.82;101558.25;5035595;28;45431;-69
2022/03/16 02:52:51;;;;;;;;;11.50;11.50;;;;;13.45;66.34;101560.03;5023115;28;45530;-69
2022/03/16 02:55:17;;;;;;;;;17.00;15.75;;;;;13.45;66.53;101561.84;5036202;28;46492;-69
2022/03/16 02:57:43;;;;;;;;;20.25;18.00;;;;;13.41;66.53;101544.94;5022877;28;45241;-69
2022/03/16 03:00:09;;;;;;;;;16.75;16.75;;;;;13.50;66.38;101560.75;5035899;28;45509;-69
2022/03/16 03:02:35;;;;;;;;;20.00;15.75;;;;;13.48;66.33;101551.91;5024220;28;45229;-69
2022/03/16 03:05:01;;;;;;;;;19.75;19.25;;;;;13.46;66.75;101556.41;5030760;28;46155;-69
2022/03/16 03:07:26;;;;;;;;;20.50;19.00;;;;;13.41;66.41;101549.44;5033255;28;45436;-69
2022/03/16 03:09:52;;;;;;;;;20.00;19.00;;;;;13.42;66.72;101554.75;5033251;28;45367;-69
2022/03/16 03:12:17;;;;;;;;;22.00;18.25;;;;;13.47;66.30;101551.94;5036618;28;45325;-69
2022/03/16 03:14:43;;;;;;;;;18.50;17.50;;;;;13.47;66.42;101563.53;5022669;28;46184;-69
2022/03/16 03:17:09;;;;;;;;;19.00;18.25;;;;;13.44;66.35;101552.03;5028686;28;45531;-69
2022/03/16 03:19:35;;;;;;;;;20.25;18.25;;;;;13.45;66.39;101553.81;5032147;28;45400;-69
2022/03/16 03:22:00;;;;;;;;;25.25;21.00;;;;;13.46;66.60;101553.72;5025457;28;45455;-70
2022/03/16 03:24:26;;;;;;;;;21.00;19.75;;;;;13.53;66.51;101562.44;5022768;28;45393;-69
2022/03/16 03:26:51;;;;;;;;;22.25;19.50;;;;;13.46;66.24;101555.53;5052681;28;45299;-69
2022/03/16 03:29:16;;;;;;;;;20.50;18.50;;;;;13.48;66.63;101562.63;5038726;28;45363;-69
2022/03/16 03:31:42;;;;;;;;;22.50;20.75;;;;;13.50;66.46;101554.53;5035665;28;45176;-69
2022/03/16 03:34:08;;;;;;;;;20.25;19.75;;;;;13.47;66.40;101555.50;5022554;28;46197;-69
2022/03/16 03:36:33;;;;;;;;;20.75;20.75;;;;;13.48;66.47;101551.00;5022220;28;45314;-69
2022/03/16 03:38:59;;;;;;;;;19.75;18.50;;;;;13.47;66.50;101557.31;5022497;28;45142;-69
2022/03/16 03:41:24;;;;;;;;;17.75;17.00;;;;;13.48;66.54;101562.63;5035599;28;45531;-69
2022/03/16 03:43:50;;;;;;;;;18.75;18.25;;;;;13.49;66.45;101564.38;5034164;28;45286;-69
2022/03/16 03:46:15;;;;;;;;;24.25;20.25;;;;;13.47;66.23;101560.84;5037203;28;45596;-69
2022/03/16 03:48:40;;;;;;;;;18.00;17.75;;;;;13.49;66.43;101558.13;5022485;28;45253;-69
2022/03/16 03:51:06;;;;;;;;;18.50;18.00;;;;;13.38;66.23;101547.75;5036809;28;45398;-69
2022/03/16 03:53:33;;;;;;;;;16.75;16.75;;;;;13.46;66.46;101567.13;5030788;28;45367;-69
2022/03/16 03:55:58;;;;;;;;;20.00;19.50;;;;;13.46;66.55;101564.44;5040500;28;45604;-69
2022/03/16 03:58:24;;;;;;;;;20.25;20.00;;;;;13.42;66.18;101559.25;5042180;28;45469;-69
2022/03/16 04:00:49;;;;;;;;;24.25;21.00;;;;;13.44;66.36;101562.75;5029188;28;45296;-69
2022/03/16 04:03:15;;;;;;;;;20.50;19.25;;;;;13.41;66.28;101563.72;5035169;28;46250;-69
2022/03/16 04:05:41;;;;;;;;;18.50;17.75;;;;;13.39;66.37;101570.94;5050163;28;46135;-69
2022/03/16 04:08:06;;;;;;;;;22.25;19.25;;;;;13.37;66.45;101555.84;5035513;28;45190;-69
2022/03/16 04:10:32;;;;;;;;;20.00;19.75;;;;;13.36;66.67;101546.91;5022623;28;45149;-69
2022/03/16 04:12:57;;;;;;;;;22.75;22.00;;;;;13.36;66.68;101548.72;5021651;28;46515;-69
2022/03/16 04:15:22;;;;;;;;;21.75;20.75;;;;;13.36;66.61;101548.72;5033109;28;45300;-69
2022/03/16 04:17:48;;;;;;;;;21.75;19.75;;;;;13.31;66.56;101530.94;5041181;28;45234;-70
2022/03/16 04:20:13;;;;;;;;;21.75;20.00;;;;;13.37;66.37;101531.72;5034408;28;45430;-70
2022/03/16 04:22:39;;;;;;;;;20.75;20.00;;;;;13.37;66.40;101531.72;5034734;28;45298;-70
2022/03/16 04:25:05;;;;;;;;;20.50;18.75;;;;;13.28;66.63;101517.63;5023984;28;45240;-70
2022/03/16 04:27:30;;;;;;;;;19.25;19.00;;;;;13.32;66.28;101529.16;5040500;28;45378;-70
2022/03/16 04:29:56;;;;;;;;;15.00;15.00;;;;;13.27;66.48;101515.00;5025935;28;45265;-70
2022/03/16 04:32:22;;;;;;;;;20.25;18.25;;;;;13.38;66.52;101531.66;5029911;28;46521;-70
2022/03/16 04:34:47;;;;;;;;;22.25;21.50;;;;;13.34;66.64;101525.50;5021469;28;45391;-70
2022/03/16 04:37:12;;;;;;;;;20.00;19.00;;;;;13.40;66.57;101539.63;5021472;28;45415;-70
2022/03/16 04:39:38;;;;;;;;;26.00;24.25;;;;;13.38;66.48;101528.09;5021193;28;45312;-70
2022/03/16 04:42:04;;;;;;;;;22.75;20.50;;;;;13.33;66.49;101521.06;5021287;28;45391;-70
2022/03/16 04:44:29;;;;;;;;;22.00;19.75;;;;;13.36;66.59;101514.72;5035544;28;45331;-70
2022/03/16 04:46:54;;;;;;;;;20.50;18.50;;;;;13.32;66.67;101515.75;5032658;28;45328;-70
2022/03/16 04:49:20;;;;;;;;;25.00;23.25;;;;;13.29;66.24;101513.13;5021249;28;45350;-70
2022/03/16 04:51:45;;;;;;;;;20.75;18.50;;;;;13.31;66.49;101514.84;5032794;28;46202;-70
2022/03/16 04:54:11;;;;;;;;;22.00;20.25;;;;;13.34;66.44;101514.75;5025668;28;45261;-70
2022/03/16 04:56:36;;;;;;;;;21.50;20.75;;;;;13.34;66.43;101530.84;5027411;28;45697;-70
2022/03/16 04:59:03;;;;;;;;;23.50;21.50;;;;;13.35;66.46;101531.75;5028016;28;45299;-70
2022/03/16 05:01:28;;;;;;;;;21.25;21.25;;;;;13.34;66.52;101530.84;5024255;28;45253;-70
2022/03/16 05:03:53;;;;;;;;;21.00;19.50;;;;;13.34;66.71;101532.66;5031071;28;45495;-70
2022/03/16 05:06:19;;;;;;;;;16.75;16.75;;;;;13.35;66.26;101529.06;5020514;28;45405;-70
2022/03/16 05:08:47;;;;;;;;;22.25;20.50;;;;;13.38;66.48;101530.75;5021226;28;45180;-70
2022/03/16 05:11:13;;;;;;;;;22.50;22.50;;;;;13.39;66.32;101519.13;5034013;28;45708;-70
2022/03/16 05:13:39;;;;;;;;;22.25;21.00;;;;;13.37;66.40;101518.31;5052082;28;46379;-70
2022/03/16 05:16:06;;;;;;;;;26.75;26.25;;;;;13.31;66.20;101514.84;5040484;28;45397;-70
2022/03/16 05:18:31;;;;;;;;;22.75;19.25;;;;;13.30;66.17;101517.59;5020825;28;45229;-69
2022/03/16 05:20:57;;;;;;;;;20.00;20.00;;;;;13.26;66.28;101510.53;5031872;28;46415;-70
2022/03/16 05:23:22;;;;;;;;;26.25;23.25;;;;;13.23;66.54;101505.28;5022293;28;45335;-70
2022/03/16 05:25:47;;;;;;;;;21.75;21.00;;;;;13.16;66.48;101499.22;5028910;28;45320;-69
2022/03/16 05:28:13;;;;;;;;;24.00;23.00;;;;;13.23;66.58;101516.00;5035294;28;45162;-70
2022/03/16 05:30:38;;;;;;;;;22.75;22.75;;;;;13.27;66.42;101529.25;5020825;28;46236;-70
2022/03/16 05:33:04;;;;;;;;;25.25;21.75;;;;;13.26;66.63;101527.50;5033824;28;45262;-70
2022/03/16 05:35:30;;;;;;;;;22.50;22.00;;;;;13.27;66.36;101539.13;5020924;28;45308;-70
2022/03/16 05:37:56;;;;;;;;;27.25;25.00;;;;;13.23;66.38;101532.97;5020237;28;45261;-69
2022/03/16 05:40:21;;;;;;;;;28.25;26.25;;;;;13.21;66.47;101537.50;5022583;28;45449;-70
2022/03/16 05:42:47;;;;;;;;;20.50;19.25;;;;;13.16;66.58;101543.03;5023214;28;45329;-70
2022/03/16 05:45:12;;;;;;;;;20.75;18.00;;;;;13.12;66.52;101543.16;5033763;28;45359;-70
2022/03/16 05:47:38;;;;;;;;;25.75;23.50;;;;;13.08;66.60;101553.09;5029868;28;45459;-70
2022/03/16 05:50:05;;;;;;;;;17.75;17.75;;;;;13.05;66.59;101541.59;5023321;28;45422;-70
2022/03/16 05:52:32;;;;;;;;;25.50;22.75;;;;;13.03;66.73;101546.09;5029798;28;45359;-70
2022/03/16 05:54:58;;;;;;;;;21.00;19.00;;;;;12.97;66.80;101528.41;5041525;28;45189;-70
2022/03/16 05:57:24;;;;;;;;;22.50;21.75;;;;;13.02;66.63;101542.53;5049156;28;45448;-70
2022/03/16 05:59:50;;;;;;;;;26.75;24.00;;;;;13.01;66.77;101542.59;5023251;28;46279;-70
2022/03/16 06:02:17;;;;;;;;;23.75;21.25;;;;;12.92;66.88;101528.53;5031918;28;45277;-70
2022/03/16 06:04:45;;;;;;;;;25.00;23.00;;;;;13.01;66.84;101529.19;5020146;28;45371;-70
2022/03/16 06:07:11;;;;;;;;;26.00;20.75;;;;;13.00;66.88;101536.34;5020131;28;45375;-70
2022/03/16 06:09:37;;;;;;;;;27.25;24.75;;;;;13.02;66.73;101539.00;5034048;28;45268;-70
2022/03/16 06:12:03;;;;;;;;;24.50;23.50;;;;;13.01;66.94;101551.50;5031510;28;45239;-70
2022/03/16 06:14:30;;;;;;;;;19.75;19.75;;;;;12.97;66.92;101553.38;5033283;28;45325;-70
2022/03/16 06:16:56;;;;;;;;;26.50;22.50;;;;;12.98;66.79;101547.13;5023585;28;45250;-70
2022/03/16 06:19:22;;;;;;;;;26.50;25.00;;;;;12.95;66.94;101541.84;5023694;28;46916;-70
2022/03/16 06:21:47;;;;;;;;;29.00;25.25;;;;;13.03;66.79;101546.09;5023628;28;45271;-70
2022/03/16 06:24:14;;;;;;;;;29.00;26.50;;;;;12.97;66.62;101534.63;5029837;28;45471;-70
2022/03/16 06:26:39;;;;;;;;;26.50;25.50;;;;;13.01;66.89;101545.25;5034794;28;45315;-70
2022/03/16 06:29:05;;;;;;;;;22.50;22.50;;;;;13.00;66.79;101547.06;5029169;28;46127;-70
2022/03/16 06:31:31;;;;;;;;;30.00;25.75;;;;;12.99;66.64;101550.66;5020175;28;45577;-70
2022/03/16 06:33:56;;;;;;;;;21.00;20.00;;;;;13.00;66.74;101562.25;5021167;28;45244;-70
2022/03/16 06:36:22;;;;;;;;;22.50;20.25;;;;;12.97;66.77;101555.19;5031981;28;45343;-70
2022/03/16 06:38:47;;;;;;;;;23.25;22.50;;;;;12.96;66.88;101564.16;5025830;28;45318;-70
2022/03/16 06:41:12;;;;;;;;;27.25;24.25;;;;;12.88;66.84;101550.09;5029871;28;45270;-70
2022/03/16 06:43:38;;;;;;;;;24.75;22.50;;;;;12.94;66.86;101558.84;5021176;28;45254;-70
2022/03/16 06:46:03;;;;;;;;;27.50;24.25;;;;;12.98;66.76;101563.19;5039773;28;45308;-70
2022/03/16 06:48:28;;;;;;;;;30.00;27.25;;;;;12.94;66.67;101553.47;5035159;28;46509;-71
2022/03/16 06:50:54;;;;;;;;;20.50;18.25;;;;;13.01;66.74;101572.06;5020287;28;45325;-70
2022/03/16 06:53:20;;;;;;;;;23.25;23.00;;;;;13.02;66.84;101573.84;5023054;28;45466;-71
2022/03/16 06:55:45;;;;;;;;;28.25;27.25;;;;;12.98;66.75;101584.63;5021447;28;45212;-70
2022/03/16 06:58:10;;;;;;;;;23.25;21.75;;;;;12.97;66.72;101592.72;5026450;28;46103;-70
2022/03/16 07:00:36;;;;;;;;;29.75;28.50;;;;;12.84;66.81;101572.56;5032649;28;45328;-70
2022/03/16 07:03:03;;;;;;;;;26.50;24.00;;;;;12.87;66.85;101583.19;5022429;28;45497;-70
2022/03/16 07:05:31;;;;;;;;;27.00;24.00;;;;;12.85;66.97;101579.69;5038717;28;45492;-70
2022/03/16 07:08:02;;;;;;;;;28.25;24.50;;;;;12.82;66.98;101567.25;5042378;28;45323;-70
2022/03/16 07:10:29;;;;;;;;;31.50;29.75;;;;;12.84;67.05;101569.88;5032184;28;45474;-70
2022/03/16 07:12:54;;;;;;;;;27.50;26.00;;;;;12.83;67.07;101576.16;5044919;28;45528;-70
2022/03/16 07:15:21;;;;;;;;;29.00;29.00;;;;;12.75;67.07;101565.66;5022778;28;45434;-70
2022/03/16 07:17:46;;;;;;;;;26.75;25.00;;;;;12.88;67.01;101577.78;5022203;28;45503;-70
2022/03/16 07:20:12;;;;;;;;;31.00;29.50;;;;;12.79;67.16;101565.50;5018794;28;45228;-71
2022/03/16 07:22:38;;;;;;;;;24.25;22.75;;;;;12.89;66.84;101584.88;5028635;28;45411;-71
2022/03/16 07:25:05;;;;;;;;;29.00;24.75;;;;;12.86;67.23;101576.94;5023414;28;45436;-70
2022/03/16 07:27:30;;;;;;;;;29.00;25.25;;;;;12.82;66.99;101586.00;5037084;28;47371;-69
2022/03/16 07:29:56;;;;;;;;;24.25;23.50;;;;;12.78;67.04;101579.84;5028551;28;45781;-70
2022/03/16 07:32:22;;;;;;;;;29.75;26.25;;;;;12.74;67.12;101588.88;5027878;28;45340;-70
2022/03/16 07:34:48;;;;;;;;;26.25;23.25;;;;;12.70;67.18;101579.19;5022637;28;45256;-69
2022/03/16 07:37:13;;;;;;;;;29.50;24.50;;;;;12.75;67.27;101589.78;5034391;28;45770;-70
2022/03/16 07:39:39;;;;;;;;;33.75;26.75;;;;;12.80;67.18;101585.16;5026105;28;45464;-70
2022/03/16 07:42:04;;;;;;;;;28.25;24.75;;;;;12.82;67.34;101590.47;5037639;28;45431;-70
2022/03/16 07:44:29;;;;;;;;;30.50;28.75;;;;;12.83;67.42;101587.75;5034714;28;45473;-70
2022/03/16 07:46:55;;;;;;;;;24.75;22.50;;;;;12.82;67.26;101580.63;5021956;28;45386;-70
2022/03/16 07:49:20;;;;;;;;;30.00;26.50;;;;;12.81;67.11;101588.72;5029714;28;45393;-71
2022/03/16 07:51:46;;;;;;;;;33.00;27.75;;;;;12.82;67.31;101586.00;5026404;28;45210;-70
2022/03/16 07:54:11;;;;;;;;;30.50;29.75;;;;;12.82;67.34;101590.47;5022024;28;45212;-70
2022/03/16 07:56:36;;;;;;;;;31.00;28.25;;;;;12.85;67.40;101582.38;5035643;28;45506;-71
2022/03/16 07:59:02;;;;;;;;;30.25;28.75;;;;;12.85;67.11;101579.69;5033527;28;45398;-70
2022/03/16 08:01:28;;;;;;;;;35.50;29.25;;;;;12.83;67.14;101581.50;5021888;28;45305;-71
2022/03/16 08:03:54;;;;;;;;;27.75;26.50;;;;;12.86;67.25;101584.09;5022092;28;45293;-71
2022/03/16 08:06:20;;;;;;;;;28.75;28.00;;;;;12.79;67.13;101568.19;5035814;28;46146;-71
2022/03/16 08:08:45;;;;;;;;;29.75;29.75;;;;;12.85;67.04;101588.59;5039100;28;45672;-71
2022/03/16 08:11:11;;;;;;;;;32.75;30.50;;;;;12.81;66.84;101576.19;5041389;28;45297;-69
2022/03/16 08:13:37;;;;;;;;;28.75;28.75;;;;;12.82;67.22;101580.63;5030299;28;45577;-70
2022/03/16 08:16:03;;;;;;;;;33.50;28.50;;;;;12.78;67.40;101570.94;5030694;28;46247;-69
2022/03/16 08:18:29;;;;;;;;;36.75;32.75;;;;;12.80;67.30;101574.44;5032756;28;45760;-70
2022/03/16 08:20:55;;;;;;;;;29.00;28.75;;;;;12.77;67.30;101567.38;5026732;28;45529;-70
2022/03/16 08:23:20;;;;;;;;;39.75;32.50;;;;;12.77;67.33;101571.84;5018541;28;45473;-70
2022/03/16 08:25:47;;;;;;;;;29.50;28.25;;;;;12.78;67.22;101563.78;5032402;28;45545;-70
2022/03/16 08:28:12;;;;;;;;;30.75;29.00;;;;;12.79;67.36;101570.88;5035226;28;45477;-70
2022/03/16 08:30:37;;;;;;;;;30.00;27.75;;;;;12.79;67.38;101564.66;5021057;28;45313;-70
2022/03/16 08:33:03;;;;;;;;;31.00;29.75;;;;;12.75;67.45;101560.31;5024856;28;45425;-70
2022/03/16 08:35:28;;;;;;;;;33.25;30.00;;;;;12.75;67.43;101563.00;5028852;28;45448;-70
2022/03/16 08:37:54;;;;;;;;;34.50;32.00;;;;;12.77;67.50;101558.47;5025253;28;45685;-70
2022/03/16 08:40:20;;;;;;;;;31.00;29.25;;;;;12.78;67.54;101569.13;5030336;28;45554;-70
2022/03/16 08:42:45;;;;;;;;;31.75;29.25;;;;;12.82;67.37;101571.72;5031323;28;45368;-70
2022/03/16 08:45:11;;;;;;;;;31.25;30.75;;;;;12.86;67.39;101592.13;5032864;28;45942;-70
2022/03/16 08:47:37;;;;;;;;;29.75;28.25;;;;;12.83;67.37;101571.69;5021722;28;45766;-70
2022/03/16 08:50:03;;;;;;;;;30.25;29.00;;;;;12.83;67.16;101582.41;5031601;28;45461;-71
2022/03/16 08:52:29;;;;;;;;;28.50;26.25;;;;;12.86;67.34;101595.69;5032059;28;45465;-70
2022/03/16 08:54:54;;;;;;;;;33.50;30.50;;;;;12.86;67.35;101593.00;5020179;28;45989;-70
2022/03/16 08:57:21;;;;;;;;;29.50;28.50;;;;;12.89;67.33;101594.75;5027781;28;45419;-70
2022/03/16 08:59:47;;;;;;;;;34.75;31.25;;;;;12.90;67.37;101600.06;5023532;28;45557;-70
2022/03/16 09:02:12;;;;;;;;;30.75;29.75;;;;;12.88;67.29;101595.66;5040088;28;45283;-74
2022/03/16 09:04:38;;;;;;;;;29.75;26.50;;;;;12.91;67.19;101596.47;5031960;28;46039;-70
2022/03/16 09:07:03;;;;;;;;;29.50;24.00;;;;;12.92;67.37;101608.94;5019499;28;45432;-70
2022/03/16 09:09:29;;;;;;;;;34.25;32.00;;;;;12.92;67.27;101598.22;5019263;28;45327;-70
2022/03/16 09:11:55;;;;;;;;;28.00;27.50;;;;;12.96;67.34;101604.34;5033565;28;45350;-70
2022/03/16 09:14:20;;;;;;;;;32.75;32.25;;;;;13.00;67.09;101607.81;5018911;28;46067;-70
2022/03/16 09:16:47;;;;;;;;;33.50;30.25;;;;;13.03;67.23;101607.72;5024229;28;45479;-70
2022/03/16 09:19:16;;;;;;;;;33.00;31.75;;;;;13.01;66.93;101602.41;5023688;28;45478;-69
2022/03/16 09:21:43;;;;;;;;;31.25;27.00;;;;;13.01;66.87;101599.72;5034981;28;45560;-72
2022/03/16 09:24:10;;;;;;;;;32.25;31.25;;;;;13.05;67.04;101603.22;5026074;28;46940;-71
2022/03/16 09:26:35;;;;;;;;;35.00;32.00;;;;;13.05;66.99;101597.88;5039268;28;45807;-70
2022/03/16 09:29:01;;;;;;;;;31.00;28.75;;;;;13.03;66.73;101591.66;5042220;28;45486;-68
2022/03/16 09:31:26;;;;;;;;;33.00;30.75;;;;;13.07;66.52;101596.00;5041491;28;45575;-68
2022/03/16 09:33:51;;;;;;;;;32.25;29.25;;;;;13.08;66.76;101604.03;5028902;28;45442;-70
2022/03/16 09:36:17;;;;;;;;;31.50;30.75;;;;;13.11;66.60;101603.94;5025606;28;45315;-70
2022/03/16 09:38:42;;;;;;;;;31.25;28.75;;;;;13.11;66.62;101608.41;5030751;28;45260;-71
2022/03/16 09:41:08;;;;;;;;;36.75;34.00;;;;;13.03;66.63;101586.28;5038697;28;45509;-70
2022/03/16 09:43:38;;;;;;;;;33.00;31.25;;;;;13.10;66.82;101607.53;5038671;28;46375;-70
2022/03/16 09:46:11;;;;;;;;;29.00;27.50;;;;;13.10;66.46;101598.63;5025055;28;45265;-71
2022/03/16 09:48:39;;;;;;;;;30.50;28.00;;;;;13.09;66.49;101608.44;5023844;28;45364;-71
2022/03/16 09:51:05;;;;;;;;;34.00;26.75;;;;;13.10;66.65;101585.22;5026448;28;45510;-71
2022/03/16 09:53:31;;;;;;;;;30.00;29.50;;;;;13.12;66.53;101594.94;5021628;28;46216;-72
2022/03/16 09:55:57;;;;;;;;;30.25;29.00;;;;;13.15;66.69;101594.00;5019066;28;45435;-71
2022/03/16 09:58:22;;;;;;;;;32.00;30.00;;;;;13.16;66.55;101585.91;5021139;28;45443;-71
2022/03/16 10:00:49;;;;;;;;;32.75;28.25;;;;;13.23;66.60;101585.69;5031624;28;45787;-70
2022/03/16 10:03:15;;;;;;;;;32.25;31.00;;;;;13.25;66.25;101581.19;5019310;28;46082;-70
2022/03/16 10:05:44;;;;;;;;;29.25;26.50;;;;;13.25;66.49;101582.06;5020565;28;45332;-70
2022/03/16 10:08:10;;;;;;;;;34.25;30.75;;;;;13.31;66.65;101579.22;5020361;28;45513;-71
2022/03/16 10:13:22;;;;;;;;;34.50;32.00;;;;;13.38;66.48;101582.63;5019789;28;45863;-71
2022/03/16 10:15:52;;;;;;;;;32.25;30.75;;;;;13.41;66.40;101577.13;5029605;28;45443;-74
2022/03/16 10:18:21;;;;;;;;;31.50;29.25;;;;;13.43;66.19;101579.75;5036788;28;45312;-74
2022/03/16 10:20:47;;;;;;;;;36.25;32.75;;;;;13.43;66.50;101577.09;5020528;28;45349;-73
2022/03/16 10:23:28;;;;;;;;;33.00;30.25;;;;;13.43;66.07;101569.03;5033244;28;47179;-71
2022/03/16 10:25:54;;;;;;;;;34.00;32.00;;;;;13.44;66.44;101568.13;5029757;28;47269;-71
2022/03/16 10:28:26;;;;;;;;;37.25;31.50;;;;;13.45;66.47;101573.44;5026238;28;45675;-71
2022/03/16 10:30:57;;;;;;;;;35.75;33.00;;;;;13.47;66.41;101579.63;5033638;28;45429;-71
2022/03/16 10:33:26;;;;;;;;;35.25;32.50;;;;;13.49;66.34;101575.09;5037306;28;45462;-71
2022/03/16 10:35:56;;;;;;;;;28.00;26.75;;;;;13.51;66.35;101577.72;5022825;28;45992;-71
2022/03/16 10:38:22;;;;;;;;;34.75;30.00;;;;;13.54;66.20;101577.63;5030575;28;45484;-70
2022/03/16 10:40:48;;;;;;;;;32.50;30.50;;;;;13.57;66.02;101572.19;5049419;28;45440;-71
2022/03/16 10:49:06;;;;;;;;;29.00;26.50;;;;;13.63;65.83;101560.38;5048815;28;45478;-71
2022/03/16 10:51:32;;;;;;;;;38.75;32.50;;;;;13.65;65.98;101561.22;5024668;28;45497;-72
2022/03/16 10:54:00;;;;;;;;;32.25;31.00;;;;;13.67;65.78;101565.59;5028917;28;46977;-70
2022/03/16 10:56:27;;;;;;;;;29.75;28.50;;;;;13.71;65.60;101566.34;5020342;28;45334;-70
2022/03/16 10:58:54;;;;;;;;;34.50;29.25;;;;;13.76;65.71;101552.81;5036489;28;45509;-72
2022/03/16 11:01:21;;;;;;;;;32.25;30.50;;;;;13.78;65.62;101548.25;5028005;28;45597;-70
2022/03/16 11:03:50;;;;;;;;;30.00;28.75;;;;;13.80;65.66;101543.72;5035762;28;46330;-70
2022/03/16 11:06:20;;;;;;;;;34.00;31.00;;;;;13.80;65.64;101527.59;5033994;28;45453;-70
2022/03/16 11:08:47;;;;;;;;;36.25;30.75;;;;;13.86;65.63;101527.41;5021614;28;45327;-73
2022/03/16 11:13:57;;;;;;;;;33.00;32.25;;;;;13.92;65.68;101521.84;5033884;28;45562;-71